sensor_id;sensor_type;location;lat;lon;timestamp;P1;durP1;ratioP1;P2;durP2;ratioP2
42810;SDS011;28457;55.680;37.656;2022-09-13T00:01:28;6.15;;;5.18;;
42810;SDS011;28457;55.680;37.656;2022-09-13T00:03:57;8.13;;;5.43;;
42810;SDS011;28457;55.680;37.656;2022-09-13T00:06:25;6.53;;;4.57;;
42810;SDS011;28457;55.680;37.656;2022-09-13T00:08:54;7.75;;;5.07;;
42810;SDS011;28457;55.680;37.656;2022-09-13T00:11:23;6.55;;;5.03;;
42810;SDS011;28457;55.680;37.656;2022-09-13T00:13:52;7.00;;;5.57;;
42810;SDS011;28457;55.680;37.656;2022-09-13T00:16:22;5.70;;;4.45;;
42810;SDS011;28457;55.680;37.656;2022-09-13T00:18:53;4.95;;;4.20;;
42810;SDS011;28457;55.680;37.656;2022-09-13T00:21:23;5.18;;;4.60;;
42810;SDS011;28457;55.680;37.656;2022-09-13T00:23:52;6.38;;;5.10;;
42810;SDS011;28457;55.680;37.656;2022-09-13T00:26:22;7.22;;;5.70;;
42810;SDS011;28457;55.680;37.656;2022-09-13T00:28:53;5.63;;;4.95;;
42810;SDS011;28457;55.680;37.656;2022-09-13T00:31:23;6.20;;;4.85;;
42810;SDS011;28457;55.680;37.656;2022-09-13T00:33:57;9.18;;;6.05;;
42810;SDS011;28457;55.680;37.656;2022-09-13T00:36:26;7.88;;;5.32;;
42810;SDS011;28457;55.680;37.656;2022-09-13T00:38:54;6.03;;;4.93;;
42810;SDS011;28457;55.680;37.656;2022-09-13T00:41:23;7.97;;;5.60;;
42810;SDS011;28457;55.680;37.656;2022-09-13T00:43:53;6.28;;;4.80;;
42810;SDS011;28457;55.680;37.656;2022-09-13T00:46:24;7.65;;;5.95;;
42810;SDS011;28457;55.680;37.656;2022-09-13T00:49:03;7.65;;;5.53;;
42810;SDS011;28457;55.680;37.656;2022-09-13T00:51:42;6.53;;;5.20;;
42810;SDS011;28457;55.680;37.656;2022-09-13T00:54:14;5.47;;;4.80;;
42810;SDS011;28457;55.680;37.656;2022-09-13T00:56:47;7.63;;;5.25;;
42810;SDS011;28457;55.680;37.656;2022-09-13T00:59:20;8.02;;;5.07;;
42810;SDS011;28457;55.680;37.656;2022-09-13T01:01:54;6.75;;;5.07;;
42810;SDS011;28457;55.680;37.656;2022-09-13T01:04:26;5.75;;;4.80;;
42810;SDS011;28457;55.680;37.656;2022-09-13T01:07:00;5.88;;;5.10;;
42810;SDS011;28457;55.680;37.656;2022-09-13T01:09:31;6.68;;;4.38;;
42810;SDS011;28457;55.680;37.656;2022-09-13T01:12:03;6.65;;;4.55;;
42810;SDS011;28457;55.680;37.656;2022-09-13T01:14:35;6.20;;;4.80;;
42810;SDS011;28457;55.680;37.656;2022-09-13T01:17:04;5.05;;;4.55;;
42810;SDS011;28457;55.680;37.656;2022-09-13T01:19:34;5.00;;;4.18;;
42810;SDS011;28457;55.680;37.656;2022-09-13T01:25:32;5.82;;;4.88;;
42810;SDS011;28457;55.680;37.656;2022-09-13T01:28:36;6.03;;;3.97;;
42810;SDS011;28457;55.680;37.656;2022-09-13T01:31:43;4.75;;;4.15;;
42810;SDS011;28457;55.680;37.656;2022-09-13T01:34:19;5.60;;;3.88;;
42810;SDS011;28457;55.680;37.656;2022-09-13T01:37:00;5.32;;;4.15;;
42810;SDS011;28457;55.680;37.656;2022-09-13T01:39:54;5.18;;;4.68;;
42810;SDS011;28457;55.680;37.656;2022-09-13T01:42:34;5.03;;;4.25;;
42810;SDS011;28457;55.680;37.656;2022-09-13T01:45:17;6.10;;;4.13;;
42810;SDS011;28457;55.680;37.656;2022-09-13T01:47:55;5.45;;;4.57;;
42810;SDS011;28457;55.680;37.656;2022-09-13T01:50:31;10.85;;;5.00;;
42810;SDS011;28457;55.680;37.656;2022-09-13T01:53:06;4.50;;;4.10;;
42810;SDS011;28457;55.680;37.656;2022-09-13T01:55:47;5.40;;;4.30;;
42810;SDS011;28457;55.680;37.656;2022-09-13T01:58:21;6.53;;;5.03;;
42810;SDS011;28457;55.680;37.656;2022-09-13T02:00:55;5.70;;;4.35;;
42810;SDS011;28457;55.680;37.656;2022-09-13T02:03:34;5.47;;;4.57;;
42810;SDS011;28457;55.680;37.656;2022-09-13T02:06:06;6.43;;;4.60;;
42810;SDS011;28457;55.680;37.656;2022-09-13T02:08:39;6.85;;;5.35;;
42810;SDS011;28457;55.680;37.656;2022-09-13T02:11:11;8.23;;;7.43;;
42810;SDS011;28457;55.680;37.656;2022-09-13T02:13:45;10.55;;;8.35;;
42810;SDS011;28457;55.680;37.656;2022-09-13T02:16:18;10.57;;;9.25;;
42810;SDS011;28457;55.680;37.656;2022-09-13T02:18:54;9.23;;;8.07;;
42810;SDS011;28457;55.680;37.656;2022-09-13T02:21:27;9.32;;;8.30;;
42810;SDS011;28457;55.680;37.656;2022-09-13T02:24:00;9.57;;;8.25;;
42810;SDS011;28457;55.680;37.656;2022-09-13T02:26:30;8.93;;;7.30;;
42810;SDS011;28457;55.680;37.656;2022-09-13T02:29:03;8.93;;;7.03;;
42810;SDS011;28457;55.680;37.656;2022-09-13T02:31:37;7.68;;;6.32;;
42810;SDS011;28457;55.680;37.656;2022-09-13T02:34:13;7.18;;;5.28;;
42810;SDS011;28457;55.680;37.656;2022-09-13T02:36:46;6.47;;;5.47;;
42810;SDS011;28457;55.680;37.656;2022-09-13T02:39:16;6.60;;;5.07;;
42810;SDS011;28457;55.680;37.656;2022-09-13T02:41:50;6.13;;;4.97;;
42810;SDS011;28457;55.680;37.656;2022-09-13T02:44:24;5.30;;;4.57;;
42810;SDS011;28457;55.680;37.656;2022-09-13T02:47:08;8.65;;;5.95;;
42810;SDS011;28457;55.680;37.656;2022-09-13T02:49:52;5.95;;;4.60;;
42810;SDS011;28457;55.680;37.656;2022-09-13T02:52:29;6.07;;;5.38;;
42810;SDS011;28457;55.680;37.656;2022-09-13T02:55:08;8.18;;;5.63;;
42810;SDS011;28457;55.680;37.656;2022-09-13T02:57:47;7.35;;;5.95;;
42810;SDS011;28457;55.680;37.656;2022-09-13T03:00:20;7.30;;;5.85;;
42810;SDS011;28457;55.680;37.656;2022-09-13T03:02:49;6.57;;;4.97;;
42810;SDS011;28457;55.680;37.656;2022-09-13T03:05:21;7.90;;;5.82;;
42810;SDS011;28457;55.680;37.656;2022-09-13T03:07:50;8.52;;;6.35;;
42810;SDS011;28457;55.680;37.656;2022-09-13T03:10:19;6.22;;;5.63;;
42810;SDS011;28457;55.680;37.656;2022-09-13T03:12:54;7.22;;;5.70;;
42810;SDS011;28457;55.680;37.656;2022-09-13T03:15:44;5.20;;;4.70;;
42810;SDS011;28457;55.680;37.656;2022-09-13T03:18:28;8.40;;;6.30;;
42810;SDS011;28457;55.680;37.656;2022-09-13T03:21:10;7.25;;;6.15;;
42810;SDS011;28457;55.680;37.656;2022-09-13T03:23:54;7.60;;;5.90;;
42810;SDS011;28457;55.680;37.656;2022-09-13T03:26:38;9.30;;;6.93;;
42810;SDS011;28457;55.680;37.656;2022-09-13T03:29:18;8.55;;;6.45;;
42810;SDS011;28457;55.680;37.656;2022-09-13T03:32:01;8.27;;;6.05;;
42810;SDS011;28457;55.680;37.656;2022-09-13T03:34:39;6.57;;;5.75;;
42810;SDS011;28457;55.680;37.656;2022-09-13T03:37:19;6.45;;;5.55;;
42810;SDS011;28457;55.680;37.656;2022-09-13T03:39:53;9.07;;;6.10;;
42810;SDS011;28457;55.680;37.656;2022-09-13T03:42:31;7.72;;;5.38;;
42810;SDS011;28457;55.680;37.656;2022-09-13T03:45:05;8.77;;;6.25;;
42810;SDS011;28457;55.680;37.656;2022-09-13T03:47:36;7.30;;;5.95;;
42810;SDS011;28457;55.680;37.656;2022-09-13T03:50:08;12.68;;;5.97;;
42810;SDS011;28457;55.680;37.656;2022-09-13T03:52:43;6.97;;;5.40;;
42810;SDS011;28457;55.680;37.656;2022-09-13T03:55:16;7.80;;;6.20;;
42810;SDS011;28457;55.680;37.656;2022-09-13T03:57:45;6.80;;;5.47;;
42810;SDS011;28457;55.680;37.656;2022-09-13T04:00:14;6.38;;;5.38;;
42810;SDS011;28457;55.680;37.656;2022-09-13T04:02:43;6.95;;;6.18;;
42810;SDS011;28457;55.680;37.656;2022-09-13T04:05:12;6.38;;;5.70;;
42810;SDS011;28457;55.680;37.656;2022-09-13T04:07:40;7.15;;;6.30;;
42810;SDS011;28457;55.680;37.656;2022-09-13T04:10:10;6.53;;;5.78;;
42810;SDS011;28457;55.680;37.656;2022-09-13T04:12:40;8.57;;;5.72;;
42810;SDS011;28457;55.680;37.656;2022-09-13T04:15:08;7.95;;;5.40;;
42810;SDS011;28457;55.680;37.656;2022-09-13T04:17:37;7.28;;;5.53;;
42810;SDS011;28457;55.680;37.656;2022-09-13T04:20:05;9.80;;;4.97;;
42810;SDS011;28457;55.680;37.656;2022-09-13T04:22:34;7.93;;;6.32;;
42810;SDS011;28457;55.680;37.656;2022-09-13T04:25:05;7.85;;;6.28;;
42810;SDS011;28457;55.680;37.656;2022-09-13T04:27:34;7.00;;;5.22;;
42810;SDS011;28457;55.680;37.656;2022-09-13T04:30:02;6.82;;;5.03;;
42810;SDS011;28457;55.680;37.656;2022-09-13T04:32:31;9.38;;;6.25;;
42810;SDS011;28457;55.680;37.656;2022-09-13T04:35:00;6.35;;;5.28;;
42810;SDS011;28457;55.680;37.656;2022-09-13T04:37:29;10.15;;;6.32;;
42810;SDS011;28457;55.680;37.656;2022-09-13T04:39:58;8.95;;;6.78;;
42810;SDS011;28457;55.680;37.656;2022-09-13T04:42:30;8.52;;;6.63;;
42810;SDS011;28457;55.680;37.656;2022-09-13T04:44:58;8.60;;;6.18;;
42810;SDS011;28457;55.680;37.656;2022-09-13T04:47:28;11.10;;;6.05;;
42810;SDS011;28457;55.680;37.656;2022-09-13T04:49:57;11.43;;;6.82;;
42810;SDS011;28457;55.680;37.656;2022-09-13T04:52:26;8.48;;;5.82;;
42810;SDS011;28457;55.680;37.656;2022-09-13T04:54:54;9.55;;;7.32;;
42810;SDS011;28457;55.680;37.656;2022-09-13T04:57:26;9.25;;;7.43;;
42810;SDS011;28457;55.680;37.656;2022-09-13T04:59:56;11.52;;;8.10;;
42810;SDS011;28457;55.680;37.656;2022-09-13T05:02:24;8.88;;;7.30;;
42810;SDS011;28457;55.680;37.656;2022-09-13T05:04:53;11.60;;;7.20;;
42810;SDS011;28457;55.680;37.656;2022-09-13T05:07:21;9.90;;;7.35;;
42810;SDS011;28457;55.680;37.656;2022-09-13T05:09:50;12.10;;;7.75;;
42810;SDS011;28457;55.680;37.656;2022-09-13T05:12:18;10.88;;;7.75;;
42810;SDS011;28457;55.680;37.656;2022-09-13T05:14:47;8.35;;;6.20;;
42810;SDS011;28457;55.680;37.656;2022-09-13T05:17:16;9.68;;;6.70;;
42810;SDS011;28457;55.680;37.656;2022-09-13T05:19:46;9.15;;;6.72;;
42810;SDS011;28457;55.680;37.656;2022-09-13T05:22:15;10.10;;;7.22;;
42810;SDS011;28457;55.680;37.656;2022-09-13T05:24:43;9.98;;;7.20;;
42810;SDS011;28457;55.680;37.656;2022-09-13T05:27:12;9.73;;;6.90;;
42810;SDS011;28457;55.680;37.656;2022-09-13T05:29:40;10.05;;;8.00;;
42810;SDS011;28457;55.680;37.656;2022-09-13T05:32:09;8.07;;;7.13;;
42810;SDS011;28457;55.680;37.656;2022-09-13T05:34:39;9.80;;;7.63;;
42810;SDS011;28457;55.680;37.656;2022-09-13T05:37:08;10.52;;;7.90;;
42810;SDS011;28457;55.680;37.656;2022-09-13T05:39:36;11.27;;;6.38;;
42810;SDS011;28457;55.680;37.656;2022-09-13T05:42:24;11.18;;;7.18;;
42810;SDS011;28457;55.680;37.656;2022-09-13T05:44:53;8.35;;;6.22;;
42810;SDS011;28457;55.680;37.656;2022-09-13T05:47:22;10.18;;;6.95;;
42810;SDS011;28457;55.680;37.656;2022-09-13T05:49:52;9.15;;;5.85;;
42810;SDS011;28457;55.680;37.656;2022-09-13T05:52:36;9.43;;;7.65;;
42810;SDS011;28457;55.680;37.656;2022-09-13T05:55:05;10.80;;;7.32;;
42810;SDS011;28457;55.680;37.656;2022-09-13T05:57:33;10.50;;;6.20;;
42810;SDS011;28457;55.680;37.656;2022-09-13T06:00:03;9.95;;;6.90;;
42810;SDS011;28457;55.680;37.656;2022-09-13T06:02:38;12.05;;;6.75;;
42810;SDS011;28457;55.680;37.656;2022-09-13T06:05:08;8.43;;;6.10;;
42810;SDS011;28457;55.680;37.656;2022-09-13T06:07:38;10.98;;;7.18;;
42810;SDS011;28457;55.680;37.656;2022-09-13T06:10:08;9.00;;;6.35;;
42810;SDS011;28457;55.680;37.656;2022-09-13T06:12:37;8.23;;;5.75;;
42810;SDS011;28457;55.680;37.656;2022-09-13T06:15:06;8.60;;;5.32;;
42810;SDS011;28457;55.680;37.656;2022-09-13T06:17:37;6.57;;;5.53;;
42810;SDS011;28457;55.680;37.656;2022-09-13T06:20:06;11.82;;;6.35;;
42810;SDS011;28457;55.680;37.656;2022-09-13T06:22:37;12.43;;;7.00;;
42810;SDS011;28457;55.680;37.656;2022-09-13T06:25:05;6.18;;;5.43;;
42810;SDS011;28457;55.680;37.656;2022-09-13T06:27:35;8.25;;;5.78;;
42810;SDS011;28457;55.680;37.656;2022-09-13T06:30:04;8.05;;;5.45;;
42810;SDS011;28457;55.680;37.656;2022-09-13T06:32:34;11.50;;;6.68;;
42810;SDS011;28457;55.680;37.656;2022-09-13T06:35:03;6.85;;;5.55;;
42810;SDS011;28457;55.680;37.656;2022-09-13T06:37:33;10.05;;;7.32;;
42810;SDS011;28457;55.680;37.656;2022-09-13T06:40:02;8.30;;;5.53;;
42810;SDS011;28457;55.680;37.656;2022-09-13T06:42:32;8.43;;;5.70;;
42810;SDS011;28457;55.680;37.656;2022-09-13T06:45:01;10.52;;;6.47;;
42810;SDS011;28457;55.680;37.656;2022-09-13T06:47:30;7.53;;;5.80;;
42810;SDS011;28457;55.680;37.656;2022-09-13T06:49:59;7.38;;;5.68;;
42810;SDS011;28457;55.680;37.656;2022-09-13T06:52:29;10.40;;;6.22;;
42810;SDS011;28457;55.680;37.656;2022-09-13T06:54:59;11.57;;;5.95;;
42810;SDS011;28457;55.680;37.656;2022-09-13T06:57:29;7.07;;;5.75;;
42810;SDS011;28457;55.680;37.656;2022-09-13T06:59:58;10.60;;;6.30;;
42810;SDS011;28457;55.680;37.656;2022-09-13T07:02:26;8.55;;;6.05;;
42810;SDS011;28457;55.680;37.656;2022-09-13T07:04:55;9.05;;;5.45;;
42810;SDS011;28457;55.680;37.656;2022-09-13T07:07:23;10.05;;;6.13;;
42810;SDS011;28457;55.680;37.656;2022-09-13T07:09:51;10.95;;;7.32;;
42810;SDS011;28457;55.680;37.656;2022-09-13T07:12:21;10.27;;;6.72;;
42810;SDS011;28457;55.680;37.656;2022-09-13T07:14:50;10.70;;;6.70;;
42810;SDS011;28457;55.680;37.656;2022-09-13T07:17:19;12.73;;;7.15;;
42810;SDS011;28457;55.680;37.656;2022-09-13T07:19:47;13.73;;;7.50;;
42810;SDS011;28457;55.680;37.656;2022-09-13T07:22:16;11.25;;;5.93;;
42810;SDS011;28457;55.680;37.656;2022-09-13T07:24:44;8.27;;;5.18;;
42810;SDS011;28457;55.680;37.656;2022-09-13T07:27:13;13.85;;;6.80;;
42810;SDS011;28457;55.680;37.656;2022-09-13T07:29:43;11.82;;;6.90;;
42810;SDS011;28457;55.680;37.656;2022-09-13T07:32:12;11.90;;;7.53;;
42810;SDS011;28457;55.680;37.656;2022-09-13T07:34:40;9.60;;;6.50;;
42810;SDS011;28457;55.680;37.656;2022-09-13T07:37:09;7.32;;;5.80;;
42810;SDS011;28457;55.680;37.656;2022-09-13T07:39:37;13.57;;;7.13;;
42810;SDS011;28457;55.680;37.656;2022-09-13T07:42:06;11.85;;;7.43;;
42810;SDS011;28457;55.680;37.656;2022-09-13T07:44:34;9.75;;;6.80;;
42810;SDS011;28457;55.680;37.656;2022-09-13T07:47:06;7.85;;;6.40;;
42810;SDS011;28457;55.680;37.656;2022-09-13T07:49:35;9.55;;;6.55;;
42810;SDS011;28457;55.680;37.656;2022-09-13T07:52:03;8.93;;;6.28;;
42810;SDS011;28457;55.680;37.656;2022-09-13T07:54:32;11.10;;;6.72;;
42810;SDS011;28457;55.680;37.656;2022-09-13T07:57:02;6.78;;;5.18;;
42810;SDS011;28457;55.680;37.656;2022-09-13T07:59:31;9.00;;;5.28;;
42810;SDS011;28457;55.680;37.656;2022-09-13T08:01:59;7.03;;;5.78;;
42810;SDS011;28457;55.680;37.656;2022-09-13T08:04:30;8.60;;;5.90;;
42810;SDS011;28457;55.680;37.656;2022-09-13T08:07:02;6.28;;;4.88;;
42810;SDS011;28457;55.680;37.656;2022-09-13T08:09:30;6.78;;;4.70;;
42810;SDS011;28457;55.680;37.656;2022-09-13T08:11:59;7.45;;;4.82;;
42810;SDS011;28457;55.680;37.656;2022-09-13T08:14:27;8.60;;;5.00;;
42810;SDS011;28457;55.680;37.656;2022-09-13T08:16:55;7.07;;;5.32;;
42810;SDS011;28457;55.680;37.656;2022-09-13T08:19:24;7.40;;;3.63;;
42810;SDS011;28457;55.680;37.656;2022-09-13T08:21:54;15.23;;;5.75;;
42810;SDS011;28457;55.680;37.656;2022-09-13T08:24:22;5.35;;;4.00;;
42810;SDS011;28457;55.680;37.656;2022-09-13T08:26:53;8.95;;;5.90;;
42810;SDS011;28457;55.680;37.656;2022-09-13T08:29:22;7.32;;;4.85;;
42810;SDS011;28457;55.680;37.656;2022-09-13T08:31:51;9.02;;;5.20;;
42810;SDS011;28457;55.680;37.656;2022-09-13T08:34:19;5.47;;;3.40;;
42810;SDS011;28457;55.680;37.656;2022-09-13T08:36:48;8.35;;;4.78;;
42810;SDS011;28457;55.680;37.656;2022-09-13T08:39:18;5.63;;;3.95;;
42810;SDS011;28457;55.680;37.656;2022-09-13T08:41:55;7.18;;;3.58;;
42810;SDS011;28457;55.680;37.656;2022-09-13T08:44:43;6.55;;;3.35;;
42810;SDS011;28457;55.680;37.656;2022-09-13T08:47:23;6.47;;;3.15;;
42810;SDS011;28457;55.680;37.656;2022-09-13T08:50:00;6.70;;;3.25;;
42810;SDS011;28457;55.680;37.656;2022-09-13T08:52:39;4.43;;;2.97;;
42810;SDS011;28457;55.680;37.656;2022-09-13T08:55:22;5.25;;;3.88;;
42810;SDS011;28457;55.680;37.656;2022-09-13T08:57:59;5.97;;;3.15;;
42810;SDS011;28457;55.680;37.656;2022-09-13T09:00:36;5.43;;;2.85;;
42810;SDS011;28457;55.680;37.656;2022-09-13T09:03:11;5.55;;;3.25;;
42810;SDS011;28457;55.680;37.656;2022-09-13T09:05:49;3.42;;;2.50;;
42810;SDS011;28457;55.680;37.656;2022-09-13T09:08:24;3.33;;;2.38;;
42810;SDS011;28457;55.680;37.656;2022-09-13T09:11:02;5.63;;;2.33;;
42810;SDS011;28457;55.680;37.656;2022-09-13T09:13:36;3.80;;;2.50;;
42810;SDS011;28457;55.680;37.656;2022-09-13T09:16:19;3.47;;;2.63;;
42810;SDS011;28457;55.680;37.656;2022-09-13T09:18:58;3.30;;;1.92;;
42810;SDS011;28457;55.680;37.656;2022-09-13T09:21:34;3.22;;;2.13;;
42810;SDS011;28457;55.680;37.656;2022-09-13T09:24:04;4.80;;;2.78;;
42810;SDS011;28457;55.680;37.656;2022-09-13T09:26:34;3.33;;;2.08;;
42810;SDS011;28457;55.680;37.656;2022-09-13T09:29:04;5.57;;;2.80;;
42810;SDS011;28457;55.680;37.656;2022-09-13T09:31:41;3.33;;;2.28;;
42810;SDS011;28457;55.680;37.656;2022-09-13T09:34:21;4.38;;;2.47;;
42810;SDS011;28457;55.680;37.656;2022-09-13T09:37:03;3.78;;;2.13;;
42810;SDS011;28457;55.680;37.656;2022-09-13T09:39:38;3.03;;;2.35;;
42810;SDS011;28457;55.680;37.656;2022-09-13T09:42:10;3.80;;;2.10;;
42810;SDS011;28457;55.680;37.656;2022-09-13T09:44:44;7.30;;;2.75;;
42810;SDS011;28457;55.680;37.656;2022-09-13T09:47:16;4.45;;;2.72;;
42810;SDS011;28457;55.680;37.656;2022-09-13T09:49:54;2.60;;;2.08;;
42810;SDS011;28457;55.680;37.656;2022-09-13T09:52:39;5.97;;;2.80;;
42810;SDS011;28457;55.680;37.656;2022-09-13T09:55:20;5.53;;;2.50;;
42810;SDS011;28457;55.680;37.656;2022-09-13T09:57:57;3.40;;;1.90;;
42810;SDS011;28457;55.680;37.656;2022-09-13T10:00:28;5.53;;;2.50;;
42810;SDS011;28457;55.680;37.656;2022-09-13T10:03:02;2.60;;;2.10;;
42810;SDS011;28457;55.680;37.656;2022-09-13T10:05:33;3.55;;;1.90;;
42810;SDS011;28457;55.680;37.656;2022-09-13T10:08:03;2.35;;;1.50;;
42810;SDS011;28457;55.680;37.656;2022-09-13T10:10:37;3.22;;;1.77;;
42810;SDS011;28457;55.680;37.656;2022-09-13T10:13:13;3.00;;;1.70;;
42810;SDS011;28457;55.680;37.656;2022-09-13T10:15:53;3.13;;;1.67;;
42810;SDS011;28457;55.680;37.656;2022-09-13T10:18:24;4.07;;;1.58;;
42810;SDS011;28457;55.680;37.656;2022-09-13T10:21:20;3.90;;;2.05;;
42810;SDS011;28457;55.680;37.656;2022-09-13T10:23:52;7.55;;;2.03;;
42810;SDS011;28457;55.680;37.656;2022-09-13T10:26:48;10.77;;;2.20;;
42810;SDS011;28457;55.680;37.656;2022-09-13T10:29:18;4.57;;;2.10;;
42810;SDS011;28457;55.680;37.656;2022-09-13T10:31:47;5.35;;;1.60;;
42810;SDS011;28457;55.680;37.656;2022-09-13T10:34:19;3.55;;;1.77;;
42810;SDS011;28457;55.680;37.656;2022-09-13T10:36:51;4.38;;;1.70;;
42810;SDS011;28457;55.680;37.656;2022-09-13T10:39:23;2.75;;;1.50;;
42810;SDS011;28457;55.680;37.656;2022-09-13T10:41:54;5.05;;;2.28;;
42810;SDS011;28457;55.680;37.656;2022-09-13T10:44:27;5.07;;;2.00;;
42810;SDS011;28457;55.680;37.656;2022-09-13T10:47:00;3.25;;;1.83;;
42810;SDS011;28457;55.680;37.656;2022-09-13T10:49:35;2.10;;;1.40;;
42810;SDS011;28457;55.680;37.656;2022-09-13T10:52:23;3.95;;;1.70;;
42810;SDS011;28457;55.680;37.656;2022-09-13T10:54:54;6.22;;;2.03;;
42810;SDS011;28457;55.680;37.656;2022-09-13T10:57:32;2.63;;;1.67;;
42810;SDS011;28457;55.680;37.656;2022-09-13T11:00:04;4.80;;;1.40;;
42810;SDS011;28457;55.680;37.656;2022-09-13T11:02:44;2.60;;;1.50;;
42810;SDS011;28457;55.680;37.656;2022-09-13T11:05:23;4.38;;;1.60;;
42810;SDS011;28457;55.680;37.656;2022-09-13T11:08:04;3.78;;;1.48;;
42810;SDS011;28457;55.680;37.656;2022-09-13T11:10:57;3.07;;;1.90;;
42810;SDS011;28457;55.680;37.656;2022-09-13T11:13:39;3.20;;;1.80;;
42810;SDS011;28457;55.680;37.656;2022-09-13T11:16:21;3.55;;;1.67;;
42810;SDS011;28457;55.680;37.656;2022-09-13T11:19:06;4.32;;;1.90;;
42810;SDS011;28457;55.680;37.656;2022-09-13T11:21:51;2.13;;;1.30;;
42810;SDS011;28457;55.680;37.656;2022-09-13T11:24:42;3.90;;;1.80;;
42810;SDS011;28457;55.680;37.656;2022-09-13T11:27:21;3.17;;;1.50;;
42810;SDS011;28457;55.680;37.656;2022-09-13T11:30:04;4.60;;;1.60;;
42810;SDS011;28457;55.680;37.656;2022-09-13T11:35:43;7.75;;;2.60;;
42810;SDS011;28457;55.680;37.656;2022-09-13T11:38:21;2.47;;;1.50;;
42810;SDS011;28457;55.680;37.656;2022-09-13T11:41:06;9.45;;;2.08;;
42810;SDS011;28457;55.680;37.656;2022-09-13T11:43:50;4.68;;;1.85;;
42810;SDS011;28457;55.680;37.656;2022-09-13T11:46:28;3.75;;;2.15;;
42810;SDS011;28457;55.680;37.656;2022-09-13T11:49:08;5.75;;;2.00;;
42810;SDS011;28457;55.680;37.656;2022-09-13T11:51:59;5.03;;;2.25;;
42810;SDS011;28457;55.680;37.656;2022-09-13T11:54:41;4.13;;;1.77;;
42810;SDS011;28457;55.680;37.656;2022-09-13T11:57:23;2.63;;;1.63;;
42810;SDS011;28457;55.680;37.656;2022-09-13T11:59:57;2.38;;;1.73;;
42810;SDS011;28457;55.680;37.656;2022-09-13T12:02:33;4.88;;;1.80;;
42810;SDS011;28457;55.680;37.656;2022-09-13T12:05:13;2.28;;;1.60;;
42810;SDS011;28457;55.680;37.656;2022-09-13T12:07:49;5.22;;;1.95;;
42810;SDS011;28457;55.680;37.656;2022-09-13T12:10:23;3.03;;;1.80;;
42810;SDS011;28457;55.680;37.656;2022-09-13T12:12:56;6.25;;;2.10;;
42810;SDS011;28457;55.680;37.656;2022-09-13T12:15:28;3.00;;;1.63;;
42810;SDS011;28457;55.680;37.656;2022-09-13T12:18:04;4.60;;;1.90;;
42810;SDS011;28457;55.680;37.656;2022-09-13T12:20:41;3.65;;;1.90;;
42810;SDS011;28457;55.680;37.656;2022-09-13T12:23:15;4.35;;;1.52;;
42810;SDS011;28457;55.680;37.656;2022-09-13T12:25:49;2.90;;;1.75;;
42810;SDS011;28457;55.680;37.656;2022-09-13T12:28:23;3.70;;;1.73;;
42810;SDS011;28457;55.680;37.656;2022-09-13T12:30:56;3.30;;;1.75;;
42810;SDS011;28457;55.680;37.656;2022-09-13T12:33:26;2.20;;;1.42;;
42810;SDS011;28457;55.680;37.656;2022-09-13T12:36:04;4.38;;;1.80;;
42810;SDS011;28457;55.680;37.656;2022-09-13T12:42:17;5.50;;;1.98;;
42810;SDS011;28457;55.680;37.656;2022-09-13T12:45:05;4.05;;;1.83;;
42810;SDS011;28457;55.680;37.656;2022-09-13T12:47:52;4.55;;;1.70;;
42810;SDS011;28457;55.680;37.656;2022-09-13T12:50:45;3.90;;;1.60;;
42810;SDS011;28457;55.680;37.656;2022-09-13T12:53:31;3.42;;;1.70;;
42810;SDS011;28457;55.680;37.656;2022-09-13T13:02:25;5.15;;;1.65;;
42810;SDS011;28457;55.680;37.656;2022-09-13T13:04:57;4.35;;;1.77;;
42810;SDS011;28457;55.680;37.656;2022-09-13T13:07:29;3.80;;;1.98;;
42810;SDS011;28457;55.680;37.656;2022-09-13T13:10:03;5.30;;;1.60;;
42810;SDS011;28457;55.680;37.656;2022-09-13T13:12:33;3.05;;;1.98;;
42810;SDS011;28457;55.680;37.656;2022-09-13T13:15:03;4.53;;;1.80;;
42810;SDS011;28457;55.680;37.656;2022-09-13T13:17:44;6.75;;;1.80;;
42810;SDS011;28457;55.680;37.656;2022-09-13T13:23:17;1.98;;;1.30;;
42810;SDS011;28457;55.680;37.656;2022-09-13T13:26:01;3.28;;;1.40;;
42810;SDS011;28457;55.680;37.656;2022-09-13T13:34:46;3.58;;;1.67;;
42810;SDS011;28457;55.680;37.656;2022-09-13T13:37:27;3.45;;;1.90;;
42810;SDS011;28457;55.680;37.656;2022-09-13T13:48:53;5.90;;;1.70;;
42810;SDS011;28457;55.680;37.656;2022-09-13T13:51:26;3.45;;;2.33;;
42810;SDS011;28457;55.680;37.656;2022-09-13T13:53:57;3.90;;;2.10;;
42810;SDS011;28457;55.680;37.656;2022-09-13T13:59:20;6.90;;;2.17;;
42810;SDS011;28457;55.680;37.656;2022-09-13T14:01:53;2.70;;;1.70;;
42810;SDS011;28457;55.680;37.656;2022-09-13T14:10:44;4.82;;;2.40;;
42810;SDS011;28457;55.680;37.656;2022-09-13T14:13:24;3.95;;;2.38;;
42810;SDS011;28457;55.680;37.656;2022-09-13T14:16:08;3.42;;;2.47;;
42810;SDS011;28457;55.680;37.656;2022-09-13T14:18:58;7.97;;;2.70;;
42810;SDS011;28457;55.680;37.656;2022-09-13T14:21:36;4.38;;;2.40;;
42810;SDS011;28457;55.680;37.656;2022-09-13T14:24:08;5.45;;;2.90;;
42810;SDS011;28457;55.680;37.656;2022-09-13T14:26:44;3.47;;;1.98;;
42810;SDS011;28457;55.680;37.656;2022-09-13T14:29:15;5.22;;;2.40;;
42810;SDS011;28457;55.680;37.656;2022-09-13T14:31:46;4.03;;;2.13;;
42810;SDS011;28457;55.680;37.656;2022-09-13T14:34:19;4.78;;;2.35;;
42810;SDS011;28457;55.680;37.656;2022-09-13T14:36:53;4.93;;;2.20;;
42810;SDS011;28457;55.680;37.656;2022-09-13T14:39:23;3.00;;;2.15;;
42810;SDS011;28457;55.680;37.656;2022-09-13T14:41:59;5.65;;;2.38;;
42810;SDS011;28457;55.680;37.656;2022-09-13T14:44:29;6.80;;;3.28;;
42810;SDS011;28457;55.680;37.656;2022-09-13T14:47:04;5.10;;;3.38;;
42810;SDS011;28457;55.680;37.656;2022-09-13T14:49:40;4.72;;;2.20;;
42810;SDS011;28457;55.680;37.656;2022-09-13T14:52:16;4.25;;;2.00;;
42810;SDS011;28457;55.680;37.656;2022-09-13T14:54:51;4.95;;;3.17;;
42810;SDS011;28457;55.680;37.656;2022-09-13T14:57:24;4.00;;;1.98;;
42810;SDS011;28457;55.680;37.656;2022-09-13T14:59:55;3.83;;;2.20;;
42810;SDS011;28457;55.680;37.656;2022-09-13T15:02:34;6.22;;;2.88;;
42810;SDS011;28457;55.680;37.656;2022-09-13T15:05:05;4.28;;;2.33;;
42810;SDS011;28457;55.680;37.656;2022-09-13T15:07:40;3.53;;;1.92;;
42810;SDS011;28457;55.680;37.656;2022-09-13T15:10:18;3.03;;;2.03;;
42810;SDS011;28457;55.680;37.656;2022-09-13T15:12:50;4.05;;;1.77;;
42810;SDS011;28457;55.680;37.656;2022-09-13T15:18:21;3.70;;;2.35;;
42810;SDS011;28457;55.680;37.656;2022-09-13T15:20:51;4.28;;;2.10;;
42810;SDS011;28457;55.680;37.656;2022-09-13T15:23:22;3.55;;;2.40;;
42810;SDS011;28457;55.680;37.656;2022-09-13T15:25:54;5.30;;;1.95;;
42810;SDS011;28457;55.680;37.656;2022-09-13T15:28:25;3.78;;;2.38;;
42810;SDS011;28457;55.680;37.656;2022-09-13T15:30:55;3.15;;;2.00;;
42810;SDS011;28457;55.680;37.656;2022-09-13T15:33:28;3.42;;;1.90;;
42810;SDS011;28457;55.680;37.656;2022-09-13T15:36:14;3.45;;;2.33;;
42810;SDS011;28457;55.680;37.656;2022-09-13T15:39:00;2.90;;;2.00;;
42810;SDS011;28457;55.680;37.656;2022-09-13T15:41:31;2.03;;;1.63;;
42810;SDS011;28457;55.680;37.656;2022-09-13T15:44:01;6.15;;;2.25;;
42810;SDS011;28457;55.680;37.656;2022-09-13T15:46:31;4.28;;;2.10;;
42810;SDS011;28457;55.680;37.656;2022-09-13T15:49:06;3.60;;;1.98;;
42810;SDS011;28457;55.680;37.656;2022-09-13T15:51:34;4.28;;;2.03;;
42810;SDS011;28457;55.680;37.656;2022-09-13T15:54:05;2.90;;;1.90;;
42810;SDS011;28457;55.680;37.656;2022-09-13T15:56:40;3.92;;;2.92;;
42810;SDS011;28457;55.680;37.656;2022-09-13T15:59:11;3.72;;;2.38;;